KCNY/CNY METAR and TAF weather

Enter ICAO airport designator
Station Type Date Time Source
KCNY METAR 2020/07/13 13:53 UTC NOAA

KCNY 131353Z AUTO 00000KT 10SM CLR 27/08 A2995 RMK AO2 SLP067 T02670078


Station Type Date Time Source
KCNY Decoded METAR 2020/07/13 13:53 UTC NOAA

MOAB CANYONLANDS FIELD, UT, United States (KCNY) 38-46N 109-45W 1390M
Jul 13, 2020 - 09:53 AM EDT / 2020.07.13 1353 UTC
Wind: Calm:0
Visibility: 10 mile(s):0
Sky conditions: clear
Temperature: 80.1 F (26.7 C)
Dew Point: 46.0 F (7.8 C)
Relative Humidity: 30%
Pressure (altimeter): 29.95 in. Hg (1014 hPa)
ob: KCNY 131353Z AUTO 00000KT 10SM CLR 27/08 A2995 RMK AO2 SLP067 T02670078
cycle: 14

Station Type Date Time Source
KCNY TAF 2020/07/13 12:40 UTC NOAA

TAF KCNY 131138Z 1312/1412 05003KT P6SM VCSH FEW110 SCT150
FM131800 24014KT P6SM FEW150 SCT250
FM132000 24016G27KT P6SM VCTS FEW110CB SCT250
FM140300 18012KT P6SM BKN200
FM140800 15009KT P6SM SCT200

Example: see airport list